| time (UTC) | temp F | wind direction | speed MPH | gust MPH | rain 1hr in | rain 24hr in | rain mn in | humidity % | barometer mb |
| 20260904190108 | 75 | 0 | 1.0 | 7.0 | 0.00 | 1.73 | 0.12 | 84 | 1014.9 |
| 20260904184607 | 76 | 0 | 2.0 | 7.0 | 0.00 | 1.73 | 0.12 | 86 | 1014.8 |
| 20260904183105 | 75 | 0 | 0.0 | 6.0 | 0.00 | 1.73 | 0.12 | 87 | 1015.0 |
| 20260904181607 | 74 | 115 | 1.0 | 6.0 | 0.00 | 1.73 | 0.12 | 87 | 1014.9 |
| 20260904180112 | 74 | 190 | 0.0 | 4.0 | 0.00 | 1.73 | 0.12 | 90 | 1015.3 |
| 20260904174608 | 74 | 0 | 1.0 | 5.0 | 0.00 | 1.73 | 0.12 | 91 | 1015.3 |
| 20260904173104 | 73 | 0 | 0.0 | 2.0 | 0.00 | 1.73 | 0.12 | 91 | 1015.3 |
| 20260904171623 | 72 | 0 | 0.0 | 3.0 | 0.00 | 1.73 | 0.12 | 91 | 1015.2 |
| 20260904170110 | 72 | 5 | 1.0 | 4.0 | 0.00 | 1.73 | 0.12 | 91 | 1015.3 |
| 20260904164607 | 72 | 0 | 0.0 | 4.0 | 0.02 | 1.73 | 0.12 | 91 | 1015.5 |
| 20260904163104 | 72 | 0 | 0.0 | 2.0 | 0.11 | 1.73 | 0.12 | 91 | 1015.8 |
| 20260904161612 | 72 | 0 | 0.0 | 1.0 | 0.11 | 1.73 | 0.12 | 91 | 1015.9 |
| 20260904160107 | 72 | 0 | 0.0 | 3.0 | 0.11 | 1.73 | 0.12 | 90 | 1016.2 |
| 20260904154610 | 73 | 0 | 0.0 | 4.0 | 0.09 | 1.71 | 0.10 | 88 | 1016.6 |
| 20260904153116 | 74 | 193 | 0.0 | 4.0 | 0.00 | 1.62 | 0.01 | 88 | 1016.8 |
| 20260904151609 | 74 | 209 | 1.0 | 5.0 | 0.00 | 1.62 | 0.01 | 87 | 1016.1 |
| 20260904150104 | 74 | 0 | 0.0 | 5.0 | 0.00 | 1.62 | 0.01 | 89 | 1016.0 |
| 20260904144615 | 73 | 0 | 0.0 | 2.0 | 0.00 | 1.62 | 0.01 | 89 | 1015.7 |
| 20260904143122 | 73 | 0 | 1.0 | 3.0 | 0.00 | 1.62 | 0.01 | 90 | 1015.6 |
| 20260904141606 | 72 | 0 | 0.0 | 1.0 | 0.00 | 1.62 | 0.01 | 92 | 1015.6 |
| 20260904140107 | 71 | 0 | 0.0 | 2.0 | 0.00 | 1.62 | 0.01 | 92 | 1015.5 |
| 20260904134604 | 71 | 0 | 1.0 | 2.0 | 0.00 | 1.66 | 0.01 | 92 | 1015.5 |
| 20260904133116 | 70 | 0 | 0.0 | 2.0 | 0.00 | 1.66 | 0.01 | 93 | 1015.5 |
| 20260904131605 | 70 | 235 | 0.0 | 2.0 | 0.00 | 1.66 | 0.01 | 93 | 1015.4 |
| 20260904130109 | 70 | 355 | 0.0 | 2.0 | 0.00 | 1.66 | 0.01 | 94 | 1015.5 |
| 20260904124606 | 69 | 355 | 1.0 | 3.0 | 0.00 | 1.72 | 0.01 | 94 | 1015.5 |
| 20260904123106 | 68 | 0 | 0.0 | 2.0 | 0.00 | 1.72 | 0.01 | 93 | 1015.6 |
| 20260904121603 | 68 | 0 | 0.0 | 2.0 | 0.00 | 1.72 | 0.01 | 94 | 1015.4 |
| 20260904120109 | 67 | 0 | 0.0 | 1.0 | 0.00 | 1.72 | 0.01 | 94 | 1015.4 |
| 20260904114607 | 67 | 0 | 0.0 | 0.0 | 0.00 | 1.87 | 0.01 | 93 | 1015.5 |
| 20260904113109 | 67 | 0 | 0.0 | 1.0 | 0.00 | 1.87 | 0.01 | 93 | 1015.4 |
| 20260904111604 | 67 | 0 | 0.0 | 0.0 | 0.00 | 1.87 | 0.01 | 93 | 1015.1 |
| 20260904110117 | 67 | 0 | 0.0 | 0.0 | 0.00 | 1.87 | 0.01 | 93 | 1015.0 |
| 20260904104607 | 67 | 0 | 0.0 | 1.0 | 0.00 | 2.02 | 0.01 | 93 | 1014.7 |
| 20260904103105 | 67 | 0 | 0.0 | 1.0 | 0.00 | 2.02 | 0.01 | 93 | 1014.9 |
| 20260904101607 | 67 | 0 | 0.0 | 1.0 | 0.00 | 2.02 | 0.01 | 93 | 1015.3 |
| 20260904100107 | 67 | 0 | 0.0 | 2.0 | 0.00 | 2.02 | 0.01 | 93 | 1015.2 |
| 20260904094607 | 67 | 0 | 0.0 | 2.0 | 0.01 | 2.02 | 0.01 | 93 | 1015.1 |
| 20260904093107 | 67 | 0 | 0.0 | 4.0 | 0.01 | 2.02 | 0.01 | 93 | 1015.1 |
| 20260904091602 | 67 | 0 | 0.0 | 2.0 | 0.01 | 2.02 | 0.01 | 94 | 1015.0 |
| 20260904084605 | 66 | 0 | 0.0 | 1.0 | 0.00 | 2.01 | 0.00 | 94 | 1015.0 |
| 20260904083104 | 65 | 0 | 0.0 | 0.0 | 0.00 | 2.01 | 0.00 | 93 | 1014.9 |
| 20260904081602 | 66 | 0 | 0.0 | 1.0 | 0.00 | 2.01 | 0.00 | 93 | 1014.9 |
| 20260904080120 | 66 | 0 | 0.0 | 1.0 | 0.00 | 2.01 | 0.00 | 93 | 1014.8 |
| 20260904074606 | 66 | 0 | 0.0 | 1.0 | 0.00 | 2.02 | 0.00 | 93 | 1014.7 |
| 20260904073112 | 66 | 0 | 0.0 | 1.0 | 0.00 | 2.02 | 0.00 | 93 | 1014.8 |
| 20260904071603 | 66 | 0 | 0.0 | 1.0 | 0.00 | 2.02 | 0.00 | 93 | 1014.9 |
| 20260904070108 | 67 | 0 | 0.0 | 2.0 | 0.00 | 2.02 | 0.00 | 92 | 1014.8 |
| 20260904064611 | 67 | 0 | 0.0 | 1.0 | 0.00 | 2.02 | 0.00 | 92 | 1014.9 |
| 20260904063117 | 68 | 0 | 0.0 | 1.0 | 0.00 | 2.02 | 0.00 | 93 | 1014.7 |
| 20260904061604 | 68 | 0 | 0.0 | 0.0 | 0.00 | 2.02 | 0.00 | 93 | 1015.0 |
| 20260904060110 | 68 | 0 | 0.0 | 1.0 | 0.00 | 2.02 | 0.00 | 93 | 1015.2 |
| 20260904054604 | 68 | 0 | 0.0 | 1.0 | 0.00 | 2.02 | 0.00 | 93 | 1015.3 |
| 20260904053140 | 68 | 0 | 0.0 | 1.0 | 0.00 | 2.02 | 0.00 | 93 | 1015.1 |
| 20260904051608 | 68 | 0 | 0.0 | 2.0 | 0.00 | 2.02 | 0.00 | 93 | 1014.7 |
| 20260904050108 | 68 | 0 | 0.0 | 1.0 | 0.00 | 2.02 | 0.00 | 93 | 1014.9 |
| 20260904044615 | 68 | 0 | 0.0 | 2.0 | 0.00 | 2.02 | 0.00 | 93 | 1014.8 |
| 20260904043103 | 68 | 0 | 1.0 | 3.0 | 0.00 | 2.02 | 0.00 | 93 | 1014.7 |
| 20260904041606 | 68 | 42 | 0.0 | 2.0 | 0.00 | 2.02 | 0.00 | 93 | 1014.7 |
| 20260904040110 | 68 | 0 | 0.0 | 1.0 | 0.00 | 2.02 | 0.00 | 93 | 1014.8 |
| 20260904034625 | 68 | 0 | 1.0 | 2.0 | 0.00 | 2.02 | 2.02 | 93 | 1014.9 |
| 20260904033104 | 68 | 153 | 0.0 | 5.0 | 0.00 | 2.02 | 2.02 | 93 | 1014.3 |
| 20260904031603 | 68 | 16 | 1.0 | 6.0 | 0.00 | 2.02 | 2.02 | 93 | 1014.0 |
| 20260904030106 | 68 | 355 | 0.0 | 7.0 | 0.00 | 2.02 | 2.02 | 93 | 1014.0 |
| 20260904024601 | 68 | 22 | 3.0 | 8.0 | 0.00 | 2.02 | 2.02 | 93 | 1014.0 |
| 20260904023103 | 68 | 355 | 3.0 | 6.0 | 0.00 | 2.02 | 2.02 | 92 | 1014.1 |
| 20260904021616 | 68 | 20 | 1.0 | 3.0 | 0.01 | 2.02 | 2.02 | 92 | 1014.2 |
| 20260904020106 | 69 | 360 | 1.0 | 4.0 | 0.05 | 2.02 | 2.02 | 92 | 1014.0 |
| 20260904014608 | 69 | 46 | 0.0 | 2.0 | 0.11 | 2.02 | 2.02 | 92 | 1014.1 |
| 20260904013125 | 69 | 51 | 0.0 | 4.0 | 0.19 | 2.02 | 2.02 | 92 | 1014.4 |
| 20260904011645 | 69 | 30 | 1.0 | 4.0 | 0.26 | 2.01 | 2.01 | 91 | 1015.2 |
| 20260904010106 | 69 | 0 | 0.0 | 1.0 | 0.27 | 1.97 | 1.97 | 91 | 1016.5 |
| 20260904004604 | 70 | 360 | 0.0 | 1.0 | 0.48 | 1.91 | 1.91 | 91 | 1017.4 |
| 20260904003104 | 70 | 0 | 0.0 | 1.0 | 0.42 | 1.83 | 1.83 | 90 | 1017.4 |
| 20260904001603 | 70 | 0 | 0.0 | 3.0 | 0.34 | 1.75 | 1.75 | 91 | 1017.5 |
| 20260904000105 | 70 | 0 | 0.0 | 7.0 | 0.29 | 1.70 | 1.70 | 90 | 1017.4 |
| 20260903234604 | 69 | 0 | 0.0 | 4.0 | 0.02 | 1.43 | 1.43 | 90 | 1016.1 |
| 20260903233107 | 69 | 360 | 2.0 | 6.0 | 0.00 | 1.41 | 1.41 | 90 | 1015.0 |
| 20260903231606 | 70 | 0 | 0.0 | 4.0 | 0.00 | 1.41 | 1.41 | 90 | 1014.8 |
| 20260903230111 | 70 | 99 | 0.0 | 8.0 | 0.00 | 1.41 | 1.41 | 89 | 1015.2 |
| 20260903224614 | 70 | 355 | 0.0 | 3.0 | 0.00 | 1.41 | 1.41 | 88 | 1014.7 |
| 20260903223103 | 70 | 0 | 0.0 | 1.0 | 0.11 | 1.41 | 1.41 | 88 | 1014.7 |
| 20260903221605 | 70 | 103 | 1.0 | 4.0 | 1.00 | 1.41 | 1.41 | 88 | 1014.8 |
| 20260903220105 | 71 | 0 | 0.0 | 3.0 | 1.00 | 1.41 | 1.41 | 88 | 1014.7 |
| 20260903214610 | 71 | 5 | 2.0 | 4.0 | 1.00 | 1.41 | 1.41 | 87 | 1014.8 |
| 20260903213108 | 73 | 136 | 2.0 | 17.0 | 0.88 | 1.29 | 1.29 | 84 | 1016.5 |
| 20260903211607 | 79 | 104 | 1.0 | 6.0 | 0.00 | 0.41 | 0.41 | 84 | 1015.6 |
| 20260903210142 | 80 | 0 | 0.0 | 1.0 | 0.00 | 0.41 | 0.41 | 82 | 1013.2 |
| 20260903204607 | 81 | 0 | 0.0 | 1.0 | 0.00 | 0.41 | 0.41 | 81 | 1013.6 |
| 20260903203103 | 83 | 0 | 0.0 | 1.0 | 0.00 | 0.41 | 0.41 | 79 | 1013.8 |
| 20260903201606 | 84 | 0 | 0.0 | 2.0 | 0.00 | 0.41 | 0.41 | 76 | 1013.3 |
| 20260903200118 | 85 | 334 | 1.0 | 5.0 | 0.00 | 0.41 | 0.41 | 73 | 1013.4 |
| 20260903194601 | 86 | 351 | 2.0 | 8.0 | 0.00 | 0.41 | 0.41 | 73 | 1013.6 |
| 20260903193106 | 85 | 38 | 4.0 | 9.0 | 0.00 | 0.41 | 0.41 | 74 | 1013.7 |
| 20260903191606 | 85 | 350 | 2.0 | 9.0 | 0.00 | 0.41 | 0.41 | 74 | 1014.3 |